Time;durP1;ratioP1;P1;durP2;ratioP2;P2;SDS_P1;SDS_P2;PMS_P1;PMS_P2;Temp;Humidity;BMP_temperature;BMP_pressure;BME280_temperature;BME280_humidity;BME280_pressure;Samples;Min_cycle;Max_cycle;Signal;HPM_P1;HPM_P2
2022/01/18 00:00:18;;;;;;;;;;;0.40;99.90;;;;;;5108648;28;19984;-73
2022/01/18 00:02:44;;;;;;;;;;;0.40;99.90;;;;;;5108387;28;19916;-74
2022/01/18 00:05:13;;;;;;;;;;;0.40;99.90;;;;;;5110211;28;19918;-73
2022/01/18 00:07:43;;;;;;;;;;;0.30;99.90;;;;;;5109608;28;19930;-73
2022/01/18 00:10:09;;;;;;;;;;;0.40;99.90;;;;;;5109079;28;19916;-73
2022/01/18 00:18:05;;;;;;;;;;;0.30;99.90;;;;;;5110058;28;20424;-74
2022/01/18 00:20:48;;;;;;;;;;;0.30;99.90;;;;;;5108721;28;19930;-74
2022/01/18 00:23:14;;;;;;;;;;;0.30;99.90;;;;;;5109422;28;19923;-73
2022/01/18 00:25:43;;;;;;;;;;;0.40;99.90;;;;;;5109994;28;19917;-74
2022/01/18 00:28:09;;;;;;;;;;;0.30;99.90;;;;;;5109366;28;20340;-75
2022/01/18 00:31:03;;;;;;;;;;;0.40;99.90;;;;;;5110011;28;19950;-72
2022/01/18 00:35:58;;;;;;;;;;;0.40;99.90;;;;;;5109892;28;19908;-73
2022/01/18 00:38:46;;;;;;;;;;;0.40;99.90;;;;;;5108237;28;20309;-73
2022/01/18 00:41:12;;;;;;;;;;;0.40;99.90;;;;;;5108560;28;20014;-73
2022/01/18 00:43:38;;;;;;;;;;;0.30;99.90;;;;;;5112590;28;20027;-72
2022/01/18 00:46:04;;;;;;;;;;;0.30;99.90;;;;;;5112300;28;20050;-73
2022/01/18 00:48:33;;;;;;;;;;;0.20;99.90;;;;;;5113361;28;19963;-73
2022/01/18 00:50:59;;;;;;;;;;;0.10;99.90;;;;;;5112330;28;20406;-73
2022/01/18 00:53:26;;;;;;;;;;;0.00;99.90;;;;;;5113265;28;19920;-72
2022/01/18 00:56:06;;;;;;;;;;;-0.10;99.90;;;;;;5113339;28;19915;-74
2022/01/18 00:58:31;;;;;;;;;;;-0.10;99.90;;;;;;5111548;28;19920;-73
2022/01/18 01:00:57;;;;;;;;;;;-0.30;99.90;;;;;;5113416;28;19930;-73
2022/01/18 01:03:23;;;;;;;;;;;-0.60;99.90;;;;;;5111190;28;19916;-73
2022/01/18 01:05:48;;;;;;;;;;;-0.80;99.90;;;;;;5113042;28;20399;-72
2022/01/18 01:08:14;;;;;;;;;;;-1.00;99.90;;;;;;5112645;28;19920;-73
2022/01/18 01:10:40;;;;;;;;;;;-1.10;99.90;;;;;;5113154;28;19955;-72
2022/01/18 01:13:06;;;;;;;;;;;-1.30;99.90;;;;;;5110651;28;20006;-73
2022/01/18 01:15:36;;;;;;;;;;;-1.30;99.90;;;;;;5113043;28;19911;-74
2022/01/18 01:18:35;;;;;;;;;;;-1.40;99.90;;;;;;5099112;28;19912;-74
2022/01/18 01:32:21;;;;;;;;;;;-1.40;99.90;;;;;;5076754;28;20386;-73
2022/01/18 01:34:53;;;;;;;;;;;-1.30;99.90;;;;;;5112744;28;19930;-73
2022/01/18 01:45:27;;;;;;;;;;;-1.20;99.90;;;;;;5112433;28;20533;-74
2022/01/18 01:47:53;;;;;;;;;;;-1.10;99.90;;;;;;5110377;28;19916;-73
2022/01/18 01:50:21;;;;;;;;;;;-1.20;99.90;;;;;;5110840;28;19911;-73
2022/01/18 01:52:49;;;;;;;;;;;-1.20;99.90;;;;;;5111737;28;19912;-73
2022/01/18 01:55:15;;;;;;;;;;;-1.30;99.90;;;;;;5109922;28;20406;-75
2022/01/18 01:57:41;;;;;;;;;;;-1.30;99.90;;;;;;5110637;28;20534;-74
2022/01/18 02:00:08;;;;;;;;;;;-1.30;99.90;;;;;;5111131;28;19923;-73
2022/01/18 02:02:34;;;;;;;;;;;-1.30;99.90;;;;;;5111865;28;19980;-73
2022/01/18 02:05:00;;;;;;;;;;;-1.40;99.90;;;;;;5112614;28;19924;-74
2022/01/18 02:07:25;;;;;;;;;;;-1.50;99.90;;;;;;5110539;28;19914;-75
2022/01/18 02:09:51;;;;;;;;;;;-1.40;99.90;;;;;;5111691;28;20432;-73
2022/01/18 02:12:17;;;;;;;;;;;-1.50;99.90;;;;;;5110187;28;19915;-72
2022/01/18 02:14:47;;;;;;;;;;;-1.60;99.90;;;;;;5112297;28;20010;-73
2022/01/18 02:22:45;;;;;;;;;;;-2.20;99.90;;;;;;5111256;28;19927;-73
2022/01/18 02:25:11;;;;;;;;;;;-2.40;99.90;;;;;;5111725;28;19915;-73
2022/01/18 02:27:36;;;;;;;;;;;-2.40;99.90;;;;;;5111127;28;20392;-73
2022/01/18 02:30:03;;;;;;;;;;;-2.40;99.90;;;;;;5109548;28;19927;-72
2022/01/18 02:32:28;;;;;;;;;;;-2.40;99.90;;;;;;5110901;28;20256;-73
2022/01/18 02:34:54;;;;;;;;;;;-2.40;99.90;;;;;;5111839;28;20135;-73
2022/01/18 02:37:19;;;;;;;;;;;-2.40;99.90;;;;;;5111230;28;20434;-73
2022/01/18 02:39:45;;;;;;;;;;;-2.30;99.90;;;;;;5109553;28;20104;-74
2022/01/18 02:42:11;;;;;;;;;;;-2.40;99.90;;;;;;5109777;28;19997;-73
2022/01/18 02:44:37;;;;;;;;;;;-2.40;99.90;;;;;;5111335;28;19930;-74
2022/01/18 02:47:03;;;;;;;;;;;-2.50;99.90;;;;;;5111201;28;19908;-73
2022/01/18 02:49:29;;;;;;;;;;;-2.60;99.90;;;;;;5109447;28;19981;-74
2022/01/18 02:51:56;;;;;;;;;;;-2.70;99.90;;;;;;5110721;28;20375;-74
2022/01/18 02:54:21;;;;;;;;;;;-2.70;99.90;;;;;;5111453;28;19919;-74
2022/01/18 02:56:53;;;;;;;;;;;-2.70;99.90;;;;;;5110918;28;19952;-73
2022/01/18 02:59:33;;;;;;;;;;;-2.70;99.90;;;;;;5111272;28;19931;-74
2022/01/18 03:04:45;;;;;;;;;;;-2.70;99.90;;;;;;5110550;28;19930;-73
2022/01/18 03:07:10;;;;;;;;;;;-2.70;99.90;;;;;;5109221;28;20405;-73
2022/01/18 03:09:36;;;;;;;;;;;-2.60;99.90;;;;;;5110983;28;19916;-73
2022/01/18 03:12:02;;;;;;;;;;;-2.70;99.90;;;;;;5107387;28;20061;-73
2022/01/18 03:14:28;;;;;;;;;;;-2.70;99.90;;;;;;5110693;28;19915;-74
2022/01/18 03:16:54;;;;;;;;;;;-2.70;99.90;;;;;;5110855;28;20293;-73
2022/01/18 03:19:19;;;;;;;;;;;-2.80;99.90;;;;;;5111134;28;19919;-73
2022/01/18 03:21:45;;;;;;;;;;;-2.90;99.90;;;;;;5109149;28;20393;-73
2022/01/18 03:24:15;;;;;;;;;;;-3.00;99.90;;;;;;5110846;28;19927;-72
2022/01/18 03:29:25;;;;;;;;;;;-3.10;99.90;;;;;;5110933;28;19968;-74
2022/01/18 03:31:51;;;;;;;;;;;-3.20;99.90;;;;;;5106969;28;19958;-74
2022/01/18 03:34:16;;;;;;;;;;;-3.20;99.90;;;;;;5088909;28;20378;-73
2022/01/18 03:36:42;;;;;;;;;;;-3.10;99.90;;;;;;5090620;28;19912;-74
2022/01/18 03:39:07;;;;;;;;;;;-3.20;99.90;;;;;;5108771;28;19916;-74
2022/01/18 03:41:33;;;;;;;;;;;-3.10;99.90;;;;;;5110491;28;20025;-73
2022/01/18 03:43:58;;;;;;;;;;;-3.10;99.90;;;;;;5110252;28;19927;-75
2022/01/18 03:46:25;;;;;;;;;;;-3.10;99.90;;;;;;5110456;28;20804;-73
2022/01/18 03:48:51;;;;;;;;;;;-3.00;99.90;;;;;;5108787;28;20390;-73
2022/01/18 03:51:18;;;;;;;;;;;-3.00;99.90;;;;;;5110284;28;19908;-74
2022/01/18 03:53:44;;;;;;;;;;;-3.00;99.90;;;;;;5110163;28;19916;-73
2022/01/18 03:56:09;;;;;;;;;;;-3.00;99.90;;;;;;5110627;28;19994;-74
2022/01/18 03:58:35;;;;;;;;;;;-3.00;99.90;;;;;;5110203;28;19927;-74
2022/01/18 04:01:01;;;;;;;;;;;-3.10;99.90;;;;;;5110489;28;19912;-73
2022/01/18 04:03:26;;;;;;;;;;;-3.10;99.90;;;;;;5109865;28;20002;-73
2022/01/18 04:05:52;;;;;;;;;;;-3.10;99.90;;;;;;5110174;28;19915;-74
2022/01/18 04:08:21;;;;;;;;;;;-3.10;99.90;;;;;;5109883;28;20267;-73
2022/01/18 04:10:47;;;;;;;;;;;-3.10;99.90;;;;;;5110100;28;19951;-72
2022/01/18 04:13:12;;;;;;;;;;;-3.10;99.90;;;;;;5106754;28;19951;-74
2022/01/18 04:15:38;;;;;;;;;;;-3.10;99.90;;;;;;5109012;28;19912;-74
2022/01/18 04:18:21;;;;;;;;;;;-3.10;99.90;;;;;;5111954;28;20011;-73
2022/01/18 04:28:53;;;;;;;;;;;-3.00;99.90;;;;;;5113755;28;19916;-74
2022/01/18 04:31:19;;;;;;;;;;;-2.90;99.90;;;;;;5112545;28;20474;-74
2022/01/18 04:33:45;;;;;;;;;;;-2.90;99.90;;;;;;5111916;28;20015;-75
2022/01/18 04:36:10;;;;;;;;;;;-2.90;99.90;;;;;;5112594;28;19907;-74
2022/01/18 04:38:36;;;;;;;;;;;-3.00;99.90;;;;;;5113308;28;19919;-74
2022/01/18 04:41:08;;;;;;;;;;;-2.90;99.90;;;;;;5113812;28;19920;-74
2022/01/18 04:44:06;;;;;;;;;;;-2.90;99.90;;;;;;5112277;28;19964;-76
2022/01/18 04:49:15;;;;;;;;;;;-2.90;99.90;;;;;;5073037;28;19932;-75
2022/01/18 04:51:42;;;;;;;;;;;-2.90;99.90;;;;;;5073424;28;20372;-75
2022/01/18 04:54:10;;;;;;;;;;;-3.00;99.90;;;;;;5113635;28;19920;-75
2022/01/18 04:59:02;;;;;;;;;;;-3.00;99.90;;;;;;5113397;28;19920;-74
2022/01/18 05:01:28;;;;;;;;;;;-3.00;99.90;;;;;;5111788;28;19915;-74
2022/01/18 05:03:53;;;;;;;;;;;-3.00;99.90;;;;;;5113076;28;19916;-73
2022/01/18 05:06:20;;;;;;;;;;;-3.10;99.90;;;;;;5094937;28;19919;-75
2022/01/18 05:08:46;;;;;;;;;;;-3.10;99.90;;;;;;5093869;28;19927;-73
2022/01/18 05:11:15;;;;;;;;;;;-3.00;99.90;;;;;;5091555;28;19915;-73
2022/01/18 05:19:20;;;;;;;;;;;-3.00;99.90;;;;;;5112538;28;19916;-73
2022/01/18 05:24:18;;;;;;;;;;;-2.90;99.90;;;;;;5113037;28;20021;-74
2022/01/18 05:26:43;;;;;;;;;;;-2.90;99.90;;;;;;5112741;28;19994;-73
2022/01/18 05:29:09;;;;;;;;;;;-3.00;99.90;;;;;;5112784;28;19961;-73
2022/01/18 05:31:34;;;;;;;;;;;-3.00;99.90;;;;;;5113139;28;19942;-73
2022/01/18 05:34:00;;;;;;;;;;;-3.00;99.90;;;;;;5112142;28;19916;-74
2022/01/18 05:36:27;;;;;;;;;;;-3.00;99.90;;;;;;5111315;28;19964;-73
2022/01/18 05:38:52;;;;;;;;;;;-3.00;99.90;;;;;;5092030;28;20279;-74
2022/01/18 05:41:18;;;;;;;;;;;-3.00;99.90;;;;;;5092051;28;19958;-74
2022/01/18 05:43:44;;;;;;;;;;;-3.00;99.90;;;;;;5107485;28;20401;-74
2022/01/18 05:46:09;;;;;;;;;;;-3.00;99.90;;;;;;5110816;28;20371;-73
2022/01/18 05:48:35;;;;;;;;;;;-3.10;99.90;;;;;;5112091;28;20026;-73
2022/01/18 05:51:01;;;;;;;;;;;-3.10;99.90;;;;;;5112388;28;19908;-73
2022/01/18 05:53:27;;;;;;;;;;;-3.10;99.90;;;;;;5095304;28;20289;-74
2022/01/18 05:55:53;;;;;;;;;;;-3.10;99.90;;;;;;5090562;28;19914;-73
2022/01/18 05:58:19;;;;;;;;;;;-3.10;99.90;;;;;;5105492;28;19916;-74
2022/01/18 06:00:50;;;;;;;;;;;-3.10;99.90;;;;;;5110957;28;19931;-73
2022/01/18 06:03:24;;;;;;;;;;;-3.10;99.90;;;;;;5111619;28;19919;-75
2022/01/18 06:08:34;;;;;;;;;;;-2.90;99.90;;;;;;5112019;28;19977;-73
2022/01/18 06:10:59;;;;;;;;;;;-2.90;99.90;;;;;;5111887;28;20427;-74
2022/01/18 06:13:25;;;;;;;;;;;-2.90;99.90;;;;;;5107685;28;19926;-74
2022/01/18 06:15:51;;;;;;;;;;;-2.90;99.90;;;;;;5110407;28;19911;-75
2022/01/18 06:18:17;;;;;;;;;;;-2.80;99.90;;;;;;5111411;28;19920;-74
2022/01/18 06:20:44;;;;;;;;;;;-2.80;99.90;;;;;;5112070;28;19912;-73
2022/01/18 06:23:10;;;;;;;;;;;-2.80;99.90;;;;;;5109726;28;19922;-73
2022/01/18 06:25:35;;;;;;;;;;;-2.80;99.90;;;;;;5110004;28;19915;-74
2022/01/18 06:28:01;;;;;;;;;;;-2.80;99.90;;;;;;5110858;28;19911;-74
2022/01/18 06:30:27;;;;;;;;;;;-2.70;99.90;;;;;;5110087;28;19904;-75
2022/01/18 06:32:52;;;;;;;;;;;-2.70;99.90;;;;;;5086176;28;19919;-67
2022/01/18 06:35:18;;;;;;;;;;;-2.70;99.90;;;;;;5076345;28;19913;-65
2022/01/18 06:37:44;;;;;;;;;;;-2.50;99.90;;;;;;5078393;28;19912;-64
2022/01/18 06:40:11;;;;;;;;;;;-2.30;99.90;;;;;;5081570;28;19932;-66
2022/01/18 06:42:36;;;;;;;;;;;-2.30;99.90;;;;;;5076037;28;19912;-62
2022/01/18 06:45:03;;;;;;;;;;;-2.30;99.90;;;;;;5080823;28;19979;-66
2022/01/18 06:47:28;;;;;;;;;;;-2.20;99.90;;;;;;5077510;28;19912;-67
2022/01/18 06:49:54;;;;;;;;;;;-2.20;99.90;;;;;;5087613;28;19972;-67
2022/01/18 06:52:19;;;;;;;;;;;-2.20;99.90;;;;;;5082308;28;19911;-66
2022/01/18 06:54:46;;;;;;;;;;;-2.30;99.90;;;;;;5098105;28;19919;-69
2022/01/18 06:57:11;;;;;;;;;;;-2.30;99.90;;;;;;5085992;28;19912;-68
2022/01/18 06:59:37;;;;;;;;;;;-2.40;99.90;;;;;;5080911;28;19916;-67
2022/01/18 07:02:03;;;;;;;;;;;-2.10;99.90;;;;;;5081947;28;19923;-67
2022/01/18 07:04:29;;;;;;;;;;;-2.00;99.90;;;;;;5092499;28;19985;-67
2022/01/18 07:06:55;;;;;;;;;;;-2.10;99.90;;;;;;5081308;28;20451;-70
2022/01/18 07:09:23;;;;;;;;;;;-2.00;99.90;;;;;;5087443;28;19961;-70
2022/01/18 07:11:59;;;;;;;;;;;-2.00;99.90;;;;;;5086450;28;19916;-70
2022/01/18 07:14:25;;;;;;;;;;;-2.00;99.90;;;;;;5087922;28;19924;-70
2022/01/18 07:16:50;;;;;;;;;;;-2.20;99.90;;;;;;5086838;28;20034;-70
2022/01/18 07:19:16;;;;;;;;;;;-2.20;99.90;;;;;;5079776;28;19955;-70
2022/01/18 07:21:42;;;;;;;;;;;-2.00;99.90;;;;;;5086108;28;19911;-69
2022/01/18 07:24:24;;;;;;;;;;;-1.90;99.90;;;;;;5081784;28;19969;-69
2022/01/18 07:26:50;;;;;;;;;;;-1.80;99.90;;;;;;5083121;28;20030;-70
2022/01/18 07:29:15;;;;;;;;;;;-1.40;99.90;;;;;;5090701;28;20057;-70
2022/01/18 07:31:41;;;;;;;;;;;-0.90;99.90;;;;;;5078938;28;19981;-70
2022/01/18 07:34:07;;;;;;;;;;;-0.90;99.90;;;;;;5092209;28;20246;-69
2022/01/18 07:36:32;;;;;;;;;;;-1.20;99.90;;;;;;5079583;28;19916;-69
2022/01/18 07:38:58;;;;;;;;;;;-1.40;99.90;;;;;;5089882;28;20375;-69
2022/01/18 07:41:24;;;;;;;;;;;-1.60;99.90;;;;;;5084206;28;20368;-69
2022/01/18 07:43:49;;;;;;;;;;;-1.70;99.90;;;;;;5099601;28;19950;-69
2022/01/18 07:46:15;;;;;;;;;;;-1.80;99.90;;;;;;5081575;28;19931;-68
2022/01/18 07:48:40;;;;;;;;;;;-1.70;99.90;;;;;;5086023;28;19926;-69
2022/01/18 07:51:06;;;;;;;;;;;-1.80;99.90;;;;;;5076661;28;20012;-69
2022/01/18 07:53:32;;;;;;;;;;;-1.70;99.90;;;;;;5083367;28;19920;-69
2022/01/18 07:55:57;;;;;;;;;;;-1.70;99.90;;;;;;5087548;28;19922;-69
2022/01/18 07:58:23;;;;;;;;;;;-1.60;99.90;;;;;;5083845;28;19920;-69
2022/01/18 08:00:49;;;;;;;;;;;-1.50;99.90;;;;;;5089514;28;19916;-69
2022/01/18 08:03:14;;;;;;;;;;;-1.60;99.90;;;;;;5084285;28;20006;-69
2022/01/18 08:05:40;;;;;;;;;;;-1.60;99.90;;;;;;5096417;28;19920;-69
2022/01/18 08:08:06;;;;;;;;;;;-1.60;99.90;;;;;;5080925;28;20027;-68
2022/01/18 08:10:32;;;;;;;;;;;-1.30;99.90;;;;;;5092594;28;19909;-69
2022/01/18 08:13:01;;;;;;;;;;;-1.20;99.90;;;;;;5103354;28;19930;-68
2022/01/18 08:15:28;;;;;;;;;;;-1.30;99.90;;;;;;5083040;28;20027;-66
2022/01/18 08:17:56;;;;;;;;;;;-1.40;99.90;;;;;;5082334;28;19943;-66
2022/01/18 08:20:21;;;;;;;;;;;-1.20;99.90;;;;;;5086619;28;20678;-67
2022/01/18 08:22:47;;;;;;;;;;;-0.80;99.90;;;;;;5085741;28;19916;-68
2022/01/18 08:25:14;;;;;;;;;;;-0.80;99.90;;;;;;5081624;28;20380;-65
2022/01/18 08:27:40;;;;;;;;;;;-0.70;99.90;;;;;;5082957;28;19939;-65
2022/01/18 08:30:07;;;;;;;;;;;-0.40;99.90;;;;;;5083221;28;19927;-65
2022/01/18 08:32:33;;;;;;;;;;;-0.50;99.90;;;;;;5079887;28;19944;-67
2022/01/18 08:34:58;;;;;;;;;;;-0.60;99.90;;;;;;5079586;28;19959;-66
2022/01/18 08:37:24;;;;;;;;;;;-0.90;99.90;;;;;;5086035;28;19957;-65
2022/01/18 08:39:50;;;;;;;;;;;-1.10;99.90;;;;;;5087027;28;19935;-67
2022/01/18 08:42:15;;;;;;;;;;;-1.10;99.90;;;;;;5090193;28;19925;-66
2022/01/18 08:44:43;;;;;;;;;;;-0.90;99.90;;;;;;5095033;28;19924;-67
2022/01/18 08:47:16;;;;;;;;;;;-0.80;99.90;;;;;;5083509;28;20228;-67
2022/01/18 08:49:42;;;;;;;;;;;-0.80;99.90;;;;;;5093419;28;19942;-68
2022/01/18 08:52:08;;;;;;;;;;;-0.80;99.90;;;;;;5089375;28;19912;-69
2022/01/18 08:54:34;;;;;;;;;;;-0.80;99.90;;;;;;5081443;28;19946;-67
2022/01/18 08:57:00;;;;;;;;;;;-0.90;99.90;;;;;;5086132;28;20429;-67
2022/01/18 08:59:26;;;;;;;;;;;-0.90;99.90;;;;;;5080706;28;20296;-66
2022/01/18 09:01:51;;;;;;;;;;;-1.00;99.90;;;;;;5077880;28;20272;-68
2022/01/18 09:04:19;;;;;;;;;;;-1.10;99.90;;;;;;5078339;28;20011;-66
2022/01/18 09:06:47;;;;;;;;;;;-1.20;99.90;;;;;;5083501;28;19916;-68
2022/01/18 09:09:16;;;;;;;;;;;-1.20;99.90;;;;;;5095355;28;19916;-65
2022/01/18 09:11:41;;;;;;;;;;;-1.10;99.90;;;;;;5080037;28;19912;-69
2022/01/18 09:14:07;;;;;;;;;;;-1.00;99.90;;;;;;5085437;28;19924;-65
2022/01/18 09:16:32;;;;;;;;;;;-0.90;99.90;;;;;;5094084;28;19936;-66
2022/01/18 09:18:58;;;;;;;;;;;-0.90;99.90;;;;;;5077587;28;20007;-64
2022/01/18 09:21:25;;;;;;;;;;;-0.90;99.90;;;;;;5096041;28;19916;-66
2022/01/18 09:23:51;;;;;;;;;;;-0.90;99.90;;;;;;5079446;28;19924;-66
2022/01/18 09:26:16;;;;;;;;;;;-1.60;99.90;;;;;;5080684;28;19931;-67
2022/01/18 09:28:42;;;;;;;;;;;-0.50;99.90;;;;;;5087195;28;19916;-67
2022/01/18 09:31:07;;;;;;;;;;;-0.70;99.90;;;;;;5097547;28;19918;-68
2022/01/18 09:33:33;;;;;;;;;;;-0.80;99.90;;;;;;5092764;28;19942;-67
2022/01/18 09:35:59;;;;;;;;;;;-0.70;99.90;;;;;;5074535;28;19917;-67
2022/01/18 09:38:24;;;;;;;;;;;-0.40;99.90;;;;;;5085853;28;19949;-67
2022/01/18 09:40:50;;;;;;;;;;;-0.40;99.90;;;;;;5083290;28;20279;-68
2022/01/18 09:43:17;;;;;;;;;;;-0.30;99.90;;;;;;5083486;28;20057;-68
2022/01/18 09:45:43;;;;;;;;;;;0.00;99.90;;;;;;5075134;28;20371;-69
2022/01/18 09:48:09;;;;;;;;;;;0.40;99.90;;;;;;5090363;28;19916;-67
2022/01/18 09:50:36;;;;;;;;;;;0.50;99.90;;;;;;5075000;28;19943;-67
2022/01/18 09:53:03;;;;;;;;;;;0.30;99.90;;;;;;5094824;28;19919;-67
2022/01/18 09:55:30;;;;;;;;;;;-0.10;99.90;;;;;;5098417;28;19919;-67
2022/01/18 09:57:56;;;;;;;;;;;-0.20;99.90;;;;;;5085218;28;19916;-68
2022/01/18 10:00:23;;;;;;;;;;;-0.30;99.90;;;;;;5084487;28;20320;-67
2022/01/18 10:02:49;;;;;;;;;;;-0.30;99.90;;;;;;5084205;28;19987;-66
2022/01/18 10:05:19;;;;;;;;;;;-0.30;99.90;;;;;;5086332;28;19920;-67
2022/01/18 10:07:45;;;;;;;;;;;-0.30;99.90;;;;;;5079071;28;19916;-68
2022/01/18 10:10:11;;;;;;;;;;;-0.50;99.90;;;;;;5085948;28;20001;-68
2022/01/18 10:12:36;;;;;;;;;;;-0.60;99.90;;;;;;5086290;28;20276;-66
2022/01/18 10:15:04;;;;;;;;;;;-0.70;99.90;;;;;;5076500;28;19923;-68
2022/01/18 10:17:37;;;;;;;;;;;-0.70;99.90;;;;;;5084937;28;19970;-66
2022/01/18 10:20:02;;;;;;;;;;;-0.70;99.90;;;;;;5082457;28;19924;-67
2022/01/18 10:22:34;;;;;;;;;;;-0.60;99.90;;;;;;5089839;28;20276;-67
2022/01/18 10:25:20;;;;;;;;;;;-0.80;99.90;;;;;;5085647;28;19980;-67
2022/01/18 10:27:47;;;;;;;;;;;-0.80;99.90;;;;;;5087214;28;19920;-66
2022/01/18 10:30:20;;;;;;;;;;;-0.80;99.90;;;;;;5081799;28;19912;-68
2022/01/18 10:33:28;;;;;;;;;;;-0.80;99.90;;;;;;5086772;28;19920;-69
2022/01/18 10:36:12;;;;;;;;;;;-0.90;99.90;;;;;;5083070;28;19955;-68
2022/01/18 10:38:38;;;;;;;;;;;-0.80;99.90;;;;;;5078581;28;20347;-68
2022/01/18 10:41:23;;;;;;;;;;;-0.90;99.90;;;;;;5086309;28;20297;-68
2022/01/18 10:44:22;;;;;;;;;;;-1.00;99.90;;;;;;5082347;28;19920;-69
2022/01/18 10:46:48;;;;;;;;;;;-1.00;99.90;;;;;;5091942;28;19916;-68
2022/01/18 10:49:35;;;;;;;;;;;-1.00;99.90;;;;;;5083787;28;20279;-69
2022/01/18 10:52:06;;;;;;;;;;;-1.10;99.90;;;;;;5079241;28;20358;-67
2022/01/18 10:54:36;;;;;;;;;;;-1.10;99.90;;;;;;5085770;28;20022;-68
2022/01/18 10:57:03;;;;;;;;;;;-1.00;99.90;;;;;;5076534;28;20803;-67
2022/01/18 10:59:29;;;;;;;;;;;-1.00;99.90;;;;;;5084413;28;19924;-67
2022/01/18 11:02:13;;;;;;;;;;;-1.00;99.90;;;;;;5087046;28;19955;-67
2022/01/18 11:04:45;;;;;;;;;;;-0.90;99.90;;;;;;5074484;28;20336;-67
2022/01/18 11:07:11;;;;;;;;;;;-0.70;99.90;;;;;;5077543;28;20367;-63
2022/01/18 11:09:37;;;;;;;;;;;-0.50;99.90;;;;;;5078471;28;19923;-67
2022/01/18 11:12:05;;;;;;;;;;;-0.40;99.90;;;;;;5085513;28;19911;-67
2022/01/18 11:14:31;;;;;;;;;;;-0.50;99.90;;;;;;5079110;28;20362;-68
2022/01/18 11:16:58;;;;;;;;;;;-0.60;99.90;;;;;;5080337;28;19923;-68
2022/01/18 11:21:50;;;;;;;;;;;-0.70;99.90;;;;;;5082172;28;19927;-66
2022/01/18 11:24:17;;;;;;;;;;;-0.80;99.90;;;;;;5078713;28;19951;-68
2022/01/18 11:26:44;;;;;;;;;;;-0.80;99.90;;;;;;5075443;28;20318;-66
2022/01/18 11:29:10;;;;;;;;;;;-0.80;99.90;;;;;;5078364;28;19920;-69
2022/01/18 11:31:36;;;;;;;;;;;-0.80;99.90;;;;;;5077161;28;19916;-68
2022/01/18 11:34:03;;;;;;;;;;;-0.90;99.90;;;;;;5084209;28;19912;-68
2022/01/18 11:36:32;;;;;;;;;;;-0.90;99.90;;;;;;5085614;28;19912;-68
2022/01/18 11:39:00;;;;;;;;;;;-1.00;99.90;;;;;;5071801;28;19927;-67
2022/01/18 11:41:27;;;;;;;;;;;-1.10;99.90;;;;;;5085421;28;20250;-68
2022/01/18 11:43:55;;;;;;;;;;;-1.00;99.90;;;;;;5079003;28;19924;-68
2022/01/18 11:46:34;;;;;;;;;;;-1.00;99.90;;;;;;5082507;28;19920;-68
2022/01/18 11:49:14;;;;;;;;;;;-1.00;99.90;;;;;;5098085;28;19916;-69
2022/01/18 11:51:39;;;;;;;;;;;-0.90;99.90;;;;;;5096060;28;19957;-68
2022/01/18 11:54:20;;;;;;;;;;;-0.80;99.90;;;;;;5080575;28;19928;-68
2022/01/18 11:56:46;;;;;;;;;;;-0.90;99.90;;;;;;5082504;28;19921;-68
2022/01/18 11:59:18;;;;;;;;;;;-1.00;99.90;;;;;;5081213;28;19993;-68
2022/01/18 12:01:49;;;;;;;;;;;-0.90;99.90;;;;;;5083060;28;20376;-69
2022/01/18 12:04:34;;;;;;;;;;;-0.80;99.90;;;;;;5082657;28;19916;-69
2022/01/18 12:06:59;;;;;;;;;;;-0.80;99.90;;;;;;5096914;28;19970;-69
2022/01/18 12:09:38;;;;;;;;;;;-0.80;99.90;;;;;;5084559;28;19944;-68
2022/01/18 12:12:28;;;;;;;;;;;-0.80;99.90;;;;;;5082150;28;19915;-69
2022/01/18 12:14:53;;;;;;;;;;;-0.80;99.90;;;;;;5078140;28;20444;-68
2022/01/18 12:17:19;;;;;;;;;;;-0.80;99.90;;;;;;5081845;28;20109;-68
2022/01/18 12:19:45;;;;;;;;;;;-0.70;99.90;;;;;;5074777;28;19924;-66
2022/01/18 12:22:11;;;;;;;;;;;-0.60;99.90;;;;;;5076774;28;20117;-67
2022/01/18 12:24:37;;;;;;;;;;;-0.60;99.90;;;;;;5077283;28;19916;-67
2022/01/18 12:27:21;;;;;;;;;;;-0.70;99.90;;;;;;5080979;28;19923;-69
2022/01/18 12:30:14;;;;;;;;;;;-0.70;99.90;;;;;;5074040;28;20315;-68
2022/01/18 12:32:56;;;;;;;;;;;-0.70;99.90;;;;;;5088264;28;20111;-68
2022/01/18 12:35:23;;;;;;;;;;;-0.70;99.90;;;;;;5064830;28;20345;-67
2022/01/18 12:37:49;;;;;;;;;;;-0.70;99.90;;;;;;5091047;28;19924;-66
2022/01/18 12:40:22;;;;;;;;;;;-0.90;99.90;;;;;;5082507;28;20443;-68
2022/01/18 12:45:29;;;;;;;;;;;-0.90;99.90;;;;;;5082041;28;20015;-67
2022/01/18 12:48:02;;;;;;;;;;;-0.80;99.90;;;;;;5097516;28;19916;-68
2022/01/18 12:50:34;;;;;;;;;;;-0.70;99.90;;;;;;5080876;28;19924;-67
2022/01/18 12:53:01;;;;;;;;;;;-0.80;99.90;;;;;;5076691;28;20288;-69
2022/01/18 12:55:36;;;;;;;;;;;-0.70;99.90;;;;;;5077136;28;19916;-68
2022/01/18 12:58:07;;;;;;;;;;;0.10;99.90;;;;;;5080191;28;20332;-67
2022/01/18 13:00:40;;;;;;;;;;;-0.80;99.90;;;;;;5079151;28;19964;-68
2022/01/18 13:03:06;;;;;;;;;;;-0.90;99.90;;;;;;5090046;28;20291;-69
2022/01/18 13:05:33;;;;;;;;;;;-1.00;99.90;;;;;;5081558;28;19931;-68
2022/01/18 13:08:00;;;;;;;;;;;-1.00;99.90;;;;;;5080076;28;19919;-69
2022/01/18 13:10:36;;;;;;;;;;;-1.00;99.90;;;;;;5077791;28;20353;-69
2022/01/18 13:13:03;;;;;;;;;;;-1.00;99.90;;;;;;5087847;28;20424;-69
2022/01/18 13:15:50;;;;;;;;;;;-1.00;99.90;;;;;;5095085;28;19920;-69
2022/01/18 13:22:57;;;;;;;;;;;-0.80;99.90;;;;;;5082687;28;20247;-69
2022/01/18 13:24:01;;;;;;;;;;;-0.70;99.90;;;;;;5078516;28;20378;-69
2022/01/18 13:26:40;;;;;;;;;;;-0.70;99.90;;;;;;5098467;28;19924;-66
2022/01/18 13:29:14;;;;;;;;;;;-0.80;99.90;;;;;;5075652;28;19942;-68
2022/01/18 13:31:42;;;;;;;;;;;-0.80;99.90;;;;;;5078885;28;20292;-67
2022/01/18 13:34:11;;;;;;;;;;;-0.90;99.90;;;;;;5089171;28;19920;-67
2022/01/18 13:36:58;;;;;;;;;;;-0.90;99.90;;;;;;5108400;28;19941;-67
2022/01/18 13:39:28;;;;;;;;;;;-0.80;99.90;;;;;;5080450;28;20031;-68
2022/01/18 13:41:54;;;;;;;;;;;-0.80;99.90;;;;;;5087271;28;20004;-67
2022/01/18 13:44:20;;;;;;;;;;;-0.80;99.90;;;;;;5086578;28;20414;-68
2022/01/18 13:46:45;;;;;;;;;;;-0.90;99.90;;;;;;5080652;28;20042;-67
2022/01/18 13:49:11;;;;;;;;;;;-0.90;99.90;;;;;;5091677;28;19938;-68
2022/01/18 13:51:37;;;;;;;;;;;-0.90;99.90;;;;;;5101773;28;20295;-69
2022/01/18 13:54:06;;;;;;;;;;;-1.00;99.90;;;;;;5070693;28;19916;-69
2022/01/18 13:56:32;;;;;;;;;;;-1.00;99.90;;;;;;5083580;28;19913;-69
2022/01/18 13:58:59;;;;;;;;;;;-1.10;99.90;;;;;;5080772;28;20348;-68
2022/01/18 14:01:26;;;;;;;;;;;-1.10;99.90;;;;;;5085072;28;19965;-68
2022/01/18 14:03:53;;;;;;;;;;;-1.10;99.90;;;;;;5088761;28;20466;-69
2022/01/18 14:06:20;;;;;;;;;;;-1.20;99.90;;;;;;5081028;28;19963;-69
2022/01/18 14:08:49;;;;;;;;;;;-1.30;99.90;;;;;;5091780;28;19920;-65
2022/01/18 14:11:16;;;;;;;;;;;-1.30;99.90;;;;;;5082884;28;19923;-67
2022/01/18 14:13:42;;;;;;;;;;;-1.20;99.90;;;;;;5087085;28;20403;-68
2022/01/18 14:16:19;;;;;;;;;;;-1.20;99.90;;;;;;5096102;28;19910;-68
2022/01/18 14:18:54;;;;;;;;;;;-1.30;99.90;;;;;;5095073;28;19962;-68
2022/01/18 14:21:46;;;;;;;;;;;-1.30;99.90;;;;;;5096846;28;20370;-67
2022/01/18 14:24:14;;;;;;;;;;;-1.30;99.90;;;;;;5085527;28;20344;-67
2022/01/18 14:27:00;;;;;;;;;;;-1.40;99.90;;;;;;5093021;28;19941;-67
2022/01/18 14:29:29;;;;;;;;;;;-1.40;99.90;;;;;;5096926;28;19920;-67
2022/01/18 14:31:55;;;;;;;;;;;-1.40;99.90;;;;;;5090117;28;20295;-67
2022/01/18 14:34:31;;;;;;;;;;;-1.40;99.90;;;;;;5078986;28;19923;-68
2022/01/18 14:36:56;;;;;;;;;;;-1.40;99.90;;;;;;5087312;28;19917;-67
2022/01/18 14:39:22;;;;;;;;;;;-1.40;99.90;;;;;;5086573;28;19942;-67
2022/01/18 14:41:56;;;;;;;;;;;-1.40;99.90;;;;;;5080574;28;19923;-68
2022/01/18 14:44:35;;;;;;;;;;;-1.40;99.90;;;;;;5093625;28;19946;-67
2022/01/18 14:50:09;;;;;;;;;;;-1.50;99.90;;;;;;5061984;28;20296;-68
2022/01/18 14:52:36;;;;;;;;;;;-1.40;99.90;;;;;;5066981;28;20446;-69
2022/01/18 14:55:02;;;;;;;;;;;-1.40;99.90;;;;;;5071264;28;19977;-66
2022/01/18 14:57:28;;;;;;;;;;;-1.40;99.90;;;;;;5103727;28;19942;-66
2022/01/18 14:59:54;;;;;;;;;;;-1.40;99.90;;;;;;5084223;28;19925;-68
2022/01/18 15:02:19;;;;;;;;;;;-1.30;99.90;;;;;;5084707;28;19932;-68
2022/01/18 15:04:45;;;;;;;;;;;-1.30;99.90;;;;;;5086473;28;20306;-69
2022/01/18 15:07:11;;;;;;;;;;;-1.30;99.90;;;;;;5091606;28;19912;-69
2022/01/18 15:09:37;;;;;;;;;;;-1.30;99.90;;;;;;5083175;28;20604;-66
2022/01/18 15:12:03;;;;;;;;;;;-1.40;99.90;;;;;;5085983;28;19919;-66
2022/01/18 15:14:29;;;;;;;;;;;-1.30;99.90;;;;;;5088449;28;19989;-67
2022/01/18 15:16:55;;;;;;;;;;;-1.30;99.90;;;;;;5103172;28;19912;-66
2022/01/18 15:19:21;;;;;;;;;;;-1.30;99.90;;;;;;5078811;28;20403;-67
2022/01/18 15:21:47;;;;;;;;;;;-1.30;99.90;;;;;;5081018;28;19919;-68
2022/01/18 15:24:13;;;;;;;;;;;-1.30;99.90;;;;;;5089674;28;19920;-68
2022/01/18 15:26:38;;;;;;;;;;;-1.40;99.90;;;;;;5079121;28;19969;-68
2022/01/18 15:29:04;;;;;;;;;;;-1.30;99.90;;;;;;5082930;28;19920;-68
2022/01/18 15:31:30;;;;;;;;;;;-1.40;99.90;;;;;;5074698;28;19916;-68
2022/01/18 15:33:56;;;;;;;;;;;-1.30;99.90;;;;;;5081859;28;19925;-68
2022/01/18 15:36:21;;;;;;;;;;;-1.30;99.90;;;;;;5080064;28;19924;-67
2022/01/18 15:38:47;;;;;;;;;;;-1.30;99.90;;;;;;5084685;28;19916;-69